Terminal Aerodrome Forecast
Issued by NWS

Current Version | Previous Version | Text Only | Print | Product List | Glossary On
Versions: 1 2 3 4 5 6 7 8 9 10 11 12
000
FTUS44 KLZK 042338
TAFBPK
TAF
KBPK 042338Z 0500/0524 16003KT P6SM FEW120 BKN250
     FM050200 11002KT P6SM VCSH BKN050 OVC100
      TEMPO 0503/0507 4SM -TSRA BKN050CB
     FM050700 08002KT P6SM VCTS BKN050CB BKN120
     FM051300 16005KT P6SM SCT050 BKN120
     FM052000 19007KT P6SM VCTS BKN050CB BKN120=

USA.gov is the U.S. government's official web portal to all federal, state and local government web resources and services.